createdAt,value
2019-05-05T00:00:32.060Z,99297.20
2019-05-05T00:04:54.455Z,99289.80
2019-05-05T00:09:14.830Z,99294.94
2019-05-05T00:13:35.284Z,99299.05
2019-05-05T00:17:55.885Z,99301.93
2019-05-05T00:22:16.577Z,99299.34
2019-05-05T00:26:37.645Z,99302.58
2019-05-05T00:30:58.083Z,99301.77
2019-05-05T00:35:18.728Z,99297.89
2019-05-05T00:39:39.688Z,99310.27
2019-05-05T00:44:00.813Z,99313.23
2019-05-05T00:48:21.881Z,99316.87
2019-05-05T00:52:44.630Z,99324.34
2019-05-05T00:57:04.686Z,99329.73
2019-05-05T01:01:25.460Z,99327.17
2019-05-05T01:05:46.552Z,99326.50
2019-05-05T01:10:07.392Z,99328.88
2019-05-05T01:14:28.095Z,99337.82
2019-05-05T01:18:49.201Z,99329.67
2019-05-05T01:23:10.103Z,99335.45
2019-05-05T01:27:30.424Z,99333.59
2019-05-05T01:31:51.478Z,99334.20
2019-05-05T01:36:12.039Z,99340.25
2019-05-05T01:40:32.455Z,99339.70
2019-05-05T01:44:55.147Z,99338.42
2019-05-05T01:49:15.691Z,99344.89
2019-05-05T01:53:36.114Z,99341.39
2019-05-05T01:57:57.681Z,99338.98
2019-05-05T02:02:18.119Z,99338.74
2019-05-05T02:06:39.175Z,99346.81
2019-05-05T02:10:59.818Z,99345.70
2019-05-05T02:15:21.862Z,99350.71
2019-05-05T02:19:44.332Z,99348.49
2019-05-05T02:24:05.285Z,99350.57
2019-05-05T02:28:26.273Z,99352.48
2019-05-05T02:32:46.794Z,99350.16
2019-05-05T02:37:06.919Z,99354.39
2019-05-05T02:41:28.116Z,99358.54
2019-05-05T02:45:58.226Z,99357.27
2019-05-05T02:50:19.489Z,99358.63
2019-05-05T02:54:40.675Z,99359.67
2019-05-05T02:59:04.424Z,99366.52
2019-05-05T03:03:24.706Z,99363.64
2019-05-05T03:07:45.655Z,99371.78
2019-05-05T03:12:10.814Z,99367.08
2019-05-05T03:16:35.033Z,99371.86
2019-05-05T03:21:04.355Z,99375.95
2019-05-05T03:25:18.053Z,99366.36
2019-05-05T03:29:38.836Z,99375.23
2019-05-05T03:34:00.538Z,99371.30
2019-05-05T03:38:21.202Z,99377.13
2019-05-05T03:42:41.612Z,99382.16
2019-05-05T03:47:03.549Z,99382.41
2019-05-05T03:51:24.332Z,99391.13
2019-05-05T03:55:45.450Z,99382.56
2019-05-05T04:00:07.382Z,99382.17
2019-05-05T04:04:27.983Z,99378.13
2019-05-05T04:08:48.442Z,99387.77
2019-05-05T04:13:09.835Z,99394.30
2019-05-05T04:17:30.590Z,99396.77
2019-05-05T04:21:51.005Z,99398.23
2019-05-05T04:26:11.591Z,99402.69
2019-05-05T04:30:33.837Z,99403.24
2019-05-05T04:34:54.917Z,99404.77
2019-05-05T04:39:15.784Z,99419.70
2019-05-05T04:43:36.400Z,99427.79
2019-05-05T04:47:57.189Z,99437.92
2019-05-05T04:52:17.798Z,99440.31
2019-05-05T04:56:39.027Z,99436.17
2019-05-05T05:00:59.575Z,99444.39
2019-05-05T05:05:20.020Z,99449.01
2019-05-05T05:09:40.757Z,99445.47
2019-05-05T05:14:03.741Z,99454.39
2019-05-05T05:18:24.649Z,99453.15
2019-05-05T05:22:45.366Z,99461.92
2019-05-05T05:27:05.520Z,99455.56
2019-05-05T05:31:26.190Z,99457.47
2019-05-05T05:35:46.799Z,99470.78
2019-05-05T05:40:07.565Z,99474.84
2019-05-05T05:44:28.312Z,99485.86
2019-05-05T05:48:48.562Z,99484.72
2019-05-05T05:53:09.131Z,99492.26
2019-05-05T05:57:31.370Z,99496.77
2019-05-05T06:02:06.650Z,99492.75
2019-05-05T06:06:14.704Z,99496.53
2019-05-05T06:10:35.220Z,99502.12
2019-05-05T06:14:56.065Z,99515.79
2019-05-05T06:19:16.253Z,99523.10
2019-05-05T06:23:37.588Z,99531.09
2019-05-05T06:27:58.209Z,99534.23
2019-05-05T06:32:18.279Z,99542.06
2019-05-05T06:36:38.567Z,99540.23
2019-05-05T06:40:59.077Z,99534.80
2019-05-05T06:45:20.124Z,99543.01
2019-05-05T06:49:40.280Z,99544.80
2019-05-05T06:54:01.627Z,99544.05
2019-05-05T06:58:24.211Z,99547.66
2019-05-05T07:02:44.580Z,99549.27
2019-05-05T07:07:05.662Z,99549.31
2019-05-05T07:11:26.629Z,99546.31
2019-05-05T07:15:51.497Z,99548.97
2019-05-05T07:20:13.579Z,99549.63
2019-05-05T07:24:34.582Z,99555.14
2019-05-05T07:28:55.617Z,99558.83
2019-05-05T07:33:16.032Z,99568.02
2019-05-05T07:37:36.563Z,99568.88
2019-05-05T07:41:57.190Z,99570.39
2019-05-05T07:46:17.831Z,99575.91
2019-05-05T07:50:38.423Z,99565.41
2019-05-05T07:54:59.188Z,99570.41
2019-05-05T07:59:19.770Z,99571.14
2019-05-05T08:03:40.858Z,99575.73
2019-05-05T08:08:04.474Z,99573.38
2019-05-05T08:12:24.928Z,99574.74
2019-05-05T08:16:45.801Z,99580.66
2019-05-05T08:21:07.309Z,99581.86
2019-05-05T08:25:37.473Z,99573.83
2019-05-05T08:29:50.850Z,99581.34
2019-05-05T08:34:14.263Z,99584.64
2019-05-05T08:38:34.879Z,99585.75
2019-05-05T08:42:55.355Z,99584.98
2019-05-05T08:47:16.607Z,99584.52
2019-05-05T08:51:37.713Z,99575.47
2019-05-05T08:55:59.057Z,99576.00
2019-05-05T09:00:20.282Z,99569.09
2019-05-05T09:04:41.702Z,99569.09
2019-05-05T09:09:03.920Z,99575.44
2019-05-05T09:13:25.302Z,99569.45
2019-05-05T09:17:47.003Z,99561.70
2019-05-05T09:22:08.763Z,99570.48
2019-05-05T09:26:29.741Z,99576.66
2019-05-05T09:30:50.028Z,99586.75
2019-05-05T09:35:10.469Z,99588.22
2019-05-05T09:39:34.721Z,99603.61
2019-05-05T09:43:55.211Z,99592.66
2019-05-05T09:48:15.525Z,99591.73
2019-05-05T09:52:36.072Z,99577.91
2019-05-05T09:56:56.319Z,99577.91
2019-05-05T10:01:17.580Z,99584.55
2019-05-05T10:05:38.481Z,99584.41
2019-05-05T10:09:59.098Z,99576.03
2019-05-05T10:14:20.010Z,99576.67
2019-05-05T10:18:40.984Z,99582.36
2019-05-05T10:23:01.528Z,99581.78
2019-05-05T10:27:22.360Z,99585.48
2019-05-05T10:31:43.775Z,99588.66
2019-05-05T10:36:04.751Z,99576.41
2019-05-05T10:40:25.490Z,99584.13
2019-05-05T10:44:45.776Z,99596.36
2019-05-05T10:49:06.943Z,99591.70
2019-05-05T10:53:27.768Z,99603.13
2019-05-05T10:57:49.144Z,99609.75
2019-05-05T11:02:09.240Z,99599.97
2019-05-05T11:06:29.728Z,99589.78
2019-05-05T11:10:50.699Z,99603.49
2019-05-05T11:15:14.220Z,99603.49
2019-05-05T11:19:34.561Z,99617.86
2019-05-05T11:23:55.297Z,99609.86
2019-05-05T11:28:15.826Z,99609.86
2019-05-05T11:32:36.879Z,99617.05
2019-05-05T11:36:57.405Z,99610.73
2019-05-05T11:41:18.033Z,99613.66
2019-05-05T11:45:38.315Z,99611.98
2019-05-05T11:49:58.959Z,99607.76
2019-05-05T11:54:19.889Z,99602.31
2019-05-05T11:58:44.053Z,99595.23
2019-05-05T12:03:04.531Z,99602.31
2019-05-05T12:07:25.161Z,99603.19
2019-05-05T12:11:46.009Z,99600.02
2019-05-05T12:16:07.111Z,99599.52
2019-05-05T12:20:33.678Z,99599.52
2019-05-05T12:24:54.300Z,99608.39
2019-05-05T12:29:15.555Z,99606.28
2019-05-05T12:33:36.180Z,99605.05
2019-05-05T12:37:57.274Z,99605.37
2019-05-05T12:42:19.403Z,99600.96
2019-05-05T12:46:40.347Z,99600.84
2019-05-05T12:51:01.761Z,99605.30
2019-05-05T12:55:38.360Z,99599.20
2019-05-05T12:59:46.760Z,99600.48
2019-05-05T13:04:07.465Z,99591.98
2019-05-05T13:08:27.986Z,99610.79
2019-05-05T13:12:48.482Z,99611.92
2019-05-05T13:17:09.443Z,99606.38
2019-05-05T13:21:30.303Z,99619.40
2019-05-05T13:25:55.944Z,99619.47
2019-05-05T13:30:13.654Z,99633.88
2019-05-05T13:34:34.306Z,99640.67
2019-05-05T13:38:55.399Z,99504.25
2019-05-05T13:43:16.382Z,99627.56
2019-05-05T13:47:37.161Z,99627.56
2019-05-05T13:51:57.802Z,99626.66
2019-05-05T13:56:18.017Z,99620.53
2019-05-05T14:00:38.739Z,99616.95
2019-05-05T14:04:59.327Z,99614.88
2019-05-05T14:09:19.907Z,99618.61
2019-05-05T14:13:40.911Z,99605.15
2019-05-05T14:18:01.282Z,99605.15
2019-05-05T14:22:21.376Z,99608.50
2019-05-05T14:26:42.118Z,99605.19
2019-05-05T14:31:02.770Z,99602.65
2019-05-05T14:35:23.902Z,99599.78
2019-05-05T14:39:44.545Z,99597.83
2019-05-05T14:44:04.814Z,99597.03
2019-05-05T14:48:25.784Z,99585.97
2019-05-05T14:52:46.223Z,99592.56
2019-05-05T14:57:06.600Z,99583.30
2019-05-05T15:01:27.192Z,99590.14
2019-05-05T15:05:47.849Z,99595.73
2019-05-05T15:10:08.494Z,99590.09
2019-05-05T15:14:29.146Z,99587.41
2019-05-05T15:18:49.261Z,99579.45
2019-05-05T15:23:09.898Z,99587.00
2019-05-05T15:27:30.562Z,99587.13
2019-05-05T15:31:53.719Z,99586.60
2019-05-05T15:36:14.094Z,99593.17
2019-05-05T15:40:34.458Z,99577.49
2019-05-05T15:44:55.359Z,99577.49
2019-05-05T15:49:16.032Z,99583.47
2019-05-05T15:53:36.301Z,99572.09
2019-05-05T15:57:56.505Z,99577.40
2019-05-05T16:02:17.334Z,99580.11
2019-05-05T16:06:37.866Z,99595.52
2019-05-05T16:10:58.666Z,99595.52
2019-05-05T16:15:19.820Z,99600.95
2019-05-05T16:19:40.260Z,99594.72
2019-05-05T16:24:00.492Z,99598.64
2019-05-05T16:28:20.937Z,99598.64
2019-05-05T16:32:41.787Z,99596.05
2019-05-05T16:37:03.859Z,99587.98
2019-05-05T16:41:24.398Z,99588.05
2019-05-05T16:45:44.668Z,99588.05
2019-05-05T16:50:06.874Z,99576.47
2019-05-05T16:54:27.604Z,99602.41
2019-05-05T16:58:47.864Z,99590.83
2019-05-05T17:03:08.047Z,99592.59
2019-05-05T17:07:28.796Z,99597.99
2019-05-05T17:11:49.604Z,99602.26
2019-05-05T17:16:09.781Z,99601.91
2019-05-05T17:20:30.561Z,99605.87
2019-05-05T17:24:53.421Z,99610.81
2019-05-05T17:29:14.599Z,99608.44
2019-05-05T17:33:35.304Z,99616.73
2019-05-05T17:37:55.390Z,99617.88
2019-05-05T17:42:16.815Z,99616.07
2019-05-05T17:46:37.218Z,99616.15
2019-05-05T17:50:57.908Z,99609.89
2019-05-05T17:55:18.459Z,99616.12
2019-05-05T17:59:39.228Z,99621.42
2019-05-05T18:03:59.810Z,99619.72
2019-05-05T18:08:19.988Z,99614.32
2019-05-05T18:12:40.575Z,99612.64
2019-05-05T18:17:01.538Z,99614.97
2019-05-05T18:21:23.624Z,99621.04
2019-05-05T18:25:44.312Z,99625.66
2019-05-05T18:30:05.542Z,99622.72
2019-05-05T18:34:25.932Z,99622.72
2019-05-05T18:38:46.831Z,99632.73
2019-05-05T18:43:07.715Z,99630.03
2019-05-05T18:47:28.761Z,99639.59
2019-05-05T18:51:50.526Z,99636.02
2019-05-05T18:56:11.682Z,99650.05
2019-05-05T19:00:34.304Z,99649.25
2019-05-05T19:04:55.334Z,99649.25
2019-05-05T19:09:16.706Z,99659.76
2019-05-05T19:13:38.431Z,99657.92
2019-05-05T19:18:01.079Z,99665.76
2019-05-05T19:22:21.732Z,99664.11
2019-05-05T19:26:42.143Z,99673.59
2019-05-05T19:31:04.298Z,99668.94
2019-05-05T19:35:40.228Z,99668.80
2019-05-05T19:39:51.625Z,99673.05
2019-05-05T19:44:12.017Z,99685.16
2019-05-05T19:48:33.977Z,99685.16
2019-05-05T19:52:54.930Z,99684.19
2019-05-05T19:57:15.665Z,99689.15
2019-05-05T20:01:37.967Z,99689.15
2019-05-05T20:05:58.631Z,99701.19
2019-05-05T20:10:20.080Z,99704.73
2019-05-05T20:14:43.622Z,99692.25
2019-05-05T20:19:43.740Z,99690.96
2019-05-05T20:24:07.367Z,99688.81
2019-05-05T20:28:34.873Z,99695.47
2019-05-05T20:32:57.005Z,99694.20
2019-05-05T20:37:18.946Z,99698.03
2019-05-05T20:41:43.609Z,99704.52
2019-05-05T20:46:04.731Z,99704.02
2019-05-05T20:50:26.233Z,99705.90
2019-05-05T20:54:46.974Z,99701.42
2019-05-05T20:59:07.604Z,99708.05
2019-05-05T21:03:28.415Z,99716.28
2019-05-05T21:07:49.063Z,99717.52
2019-05-05T21:12:10.183Z,99711.94
2019-05-05T21:16:31.288Z,99707.56
2019-05-05T21:20:52.083Z,99710.19
2019-05-05T21:25:14.253Z,99708.58
2019-05-05T21:29:41.595Z,99713.59
2019-05-05T21:33:57.564Z,99717.81
2019-05-05T21:38:18.384Z,99712.30
2019-05-05T21:42:39.205Z,99715.00
2019-05-05T21:47:00.378Z,99719.55
2019-05-05T21:51:21.381Z,99717.37
2019-05-05T21:55:43.927Z,99718.94
2019-05-05T22:00:04.966Z,99724.66
2019-05-05T22:04:25.209Z,99719.05
2019-05-05T22:08:46.494Z,99724.42
2019-05-05T22:13:06.879Z,99722.28
2019-05-05T22:17:27.899Z,99726.67
2019-05-05T22:21:48.527Z,99728.01
2019-05-05T22:26:09.826Z,99723.81
2019-05-05T22:34:30.777Z,99720.58
2019-05-05T22:38:51.630Z,99717.62
2019-05-05T22:43:14.337Z,99719.36
2019-05-05T22:47:34.795Z,99719.50
2019-05-05T22:51:55.555Z,99722.62
2019-05-05T22:56:15.937Z,99724.47
2019-05-05T23:00:36.558Z,99725.70
2019-05-05T23:04:57.012Z,99725.95
2019-05-05T23:09:17.075Z,99723.05
2019-05-05T23:13:37.900Z,99721.15
2019-05-05T23:17:58.815Z,99715.91
2019-05-05T23:22:18.835Z,99722.73
2019-05-05T23:26:39.424Z,99718.31
2019-05-05T23:30:59.829Z,99719.69
2019-05-05T23:35:19.810Z,99716.54
2019-05-05T23:39:40.329Z,99714.30
2019-05-05T23:44:03.551Z,99711.05
2019-05-05T23:48:24.196Z,99715.33
2019-05-05T23:52:45.177Z,99719.37
2019-05-05T23:57:05.608Z,99718.43
